sensor_id;sensor_type;location;lat;lon;timestamp;P1;durP1;ratioP1;P2;durP2;ratioP2
51792;SDS011;37850;53.178;6.376;2023-07-29T00:00:45;11.55;;;7.05;;
51792;SDS011;37850;53.178;6.376;2023-07-29T00:03:11;11.07;;;7.35;;
51792;SDS011;37850;53.178;6.376;2023-07-29T00:05:37;9.13;;;6.18;;
51792;SDS011;37850;53.178;6.376;2023-07-29T00:08:03;14.90;;;7.03;;
51792;SDS011;37850;53.178;6.376;2023-07-29T00:10:31;10.20;;;6.50;;
51792;SDS011;37850;53.178;6.376;2023-07-29T00:12:58;12.00;;;7.10;;
51792;SDS011;37850;53.178;6.376;2023-07-29T00:15:24;11.60;;;7.35;;
51792;SDS011;37850;53.178;6.376;2023-07-29T00:17:49;12.10;;;6.88;;
51792;SDS011;37850;53.178;6.376;2023-07-29T00:20:15;11.70;;;7.07;;
51792;SDS011;37850;53.178;6.376;2023-07-29T00:22:41;11.38;;;7.03;;
51792;SDS011;37850;53.178;6.376;2023-07-29T00:25:07;11.25;;;6.85;;
51792;SDS011;37850;53.178;6.376;2023-07-29T00:27:33;10.43;;;6.90;;
51792;SDS011;37850;53.178;6.376;2023-07-29T00:29:59;12.40;;;7.70;;
51792;SDS011;37850;53.178;6.376;2023-07-29T00:32:25;12.45;;;7.38;;
51792;SDS011;37850;53.178;6.376;2023-07-29T00:34:52;11.18;;;7.35;;
51792;SDS011;37850;53.178;6.376;2023-07-29T00:37:17;10.90;;;6.28;;
51792;SDS011;37850;53.178;6.376;2023-07-29T00:39:43;11.43;;;7.05;;
51792;SDS011;37850;53.178;6.376;2023-07-29T00:42:09;10.90;;;6.70;;
51792;SDS011;37850;53.178;6.376;2023-07-29T00:44:35;10.35;;;6.47;;
51792;SDS011;37850;53.178;6.376;2023-07-29T00:47:01;10.43;;;6.30;;
51792;SDS011;37850;53.178;6.376;2023-07-29T00:49:29;10.80;;;6.88;;
51792;SDS011;37850;53.178;6.376;2023-07-29T00:51:56;10.30;;;6.90;;
51792;SDS011;37850;53.178;6.376;2023-07-29T00:54:22;11.02;;;6.22;;
51792;SDS011;37850;53.178;6.376;2023-07-29T00:56:48;11.95;;;7.22;;
51792;SDS011;37850;53.178;6.376;2023-07-29T00:59:14;10.38;;;6.97;;
51792;SDS011;37850;53.178;6.376;2023-07-29T01:01:40;10.23;;;6.68;;
51792;SDS011;37850;53.178;6.376;2023-07-29T01:04:06;13.48;;;7.22;;
51792;SDS011;37850;53.178;6.376;2023-07-29T01:06:41;11.27;;;7.00;;
51792;SDS011;37850;53.178;6.376;2023-07-29T01:17:31;11.25;;;7.65;;
51792;SDS011;37850;53.178;6.376;2023-07-29T01:22:25;12.25;;;7.78;;
51792;SDS011;37850;53.178;6.376;2023-07-29T01:24:51;13.20;;;7.88;;
51792;SDS011;37850;53.178;6.376;2023-07-29T01:27:17;11.27;;;8.00;;
51792;SDS011;37850;53.178;6.376;2023-07-29T01:29:42;10.63;;;8.05;;
51792;SDS011;37850;53.178;6.376;2023-07-29T01:32:12;11.05;;;7.63;;
51792;SDS011;37850;53.178;6.376;2023-07-29T01:37:25;11.43;;;8.05;;
51792;SDS011;37850;53.178;6.376;2023-07-29T01:39:55;11.57;;;7.60;;
51792;SDS011;37850;53.178;6.376;2023-07-29T01:42:23;14.52;;;8.45;;
51792;SDS011;37850;53.178;6.376;2023-07-29T01:44:50;10.23;;;7.55;;
51792;SDS011;37850;53.178;6.376;2023-07-29T01:47:16;10.70;;;7.65;;
51792;SDS011;37850;53.178;6.376;2023-07-29T01:49:42;10.23;;;7.43;;
51792;SDS011;37850;53.178;6.376;2023-07-29T01:52:08;11.98;;;7.82;;
51792;SDS011;37850;53.178;6.376;2023-07-29T01:54:34;11.98;;;8.23;;
51792;SDS011;37850;53.178;6.376;2023-07-29T01:56:59;11.73;;;7.75;;
51792;SDS011;37850;53.178;6.376;2023-07-29T01:59:25;12.45;;;8.10;;
51792;SDS011;37850;53.178;6.376;2023-07-29T02:01:51;11.23;;;7.72;;
51792;SDS011;37850;53.178;6.376;2023-07-29T02:04:16;9.88;;;7.38;;
51792;SDS011;37850;53.178;6.376;2023-07-29T02:06:42;11.73;;;8.68;;
51792;SDS011;37850;53.178;6.376;2023-07-29T02:09:08;12.25;;;8.57;;
51792;SDS011;37850;53.178;6.376;2023-07-29T02:11:37;11.43;;;8.52;;
51792;SDS011;37850;53.178;6.376;2023-07-29T02:14:03;11.90;;;8.50;;
51792;SDS011;37850;53.178;6.376;2023-07-29T02:16:28;10.30;;;7.43;;
51792;SDS011;37850;53.178;6.376;2023-07-29T02:18:54;13.38;;;8.02;;
51792;SDS011;37850;53.178;6.376;2023-07-29T02:21:20;11.65;;;8.02;;
51792;SDS011;37850;53.178;6.376;2023-07-29T02:23:45;14.48;;;8.27;;
51792;SDS011;37850;53.178;6.376;2023-07-29T02:26:11;12.35;;;8.05;;
51792;SDS011;37850;53.178;6.376;2023-07-29T02:28:37;11.48;;;7.93;;
51792;SDS011;37850;53.178;6.376;2023-07-29T02:31:14;13.30;;;8.60;;
51792;SDS011;37850;53.178;6.376;2023-07-29T02:33:46;11.50;;;8.50;;
51792;SDS011;37850;53.178;6.376;2023-07-29T02:36:12;12.52;;;8.55;;
51792;SDS011;37850;53.178;6.376;2023-07-29T02:38:39;13.82;;;8.23;;
51792;SDS011;37850;53.178;6.376;2023-07-29T02:41:05;11.77;;;8.20;;
51792;SDS011;37850;53.178;6.376;2023-07-29T02:43:31;11.85;;;7.80;;
51792;SDS011;37850;53.178;6.376;2023-07-29T02:45:57;12.43;;;7.43;;
51792;SDS011;37850;53.178;6.376;2023-07-29T02:48:22;12.45;;;8.00;;
51792;SDS011;37850;53.178;6.376;2023-07-29T02:50:49;13.90;;;8.45;;
51792;SDS011;37850;53.178;6.376;2023-07-29T02:53:15;11.10;;;7.88;;
51792;SDS011;37850;53.178;6.376;2023-07-29T02:55:41;12.27;;;8.38;;
51792;SDS011;37850;53.178;6.376;2023-07-29T02:58:07;12.07;;;8.00;;
51792;SDS011;37850;53.178;6.376;2023-07-29T03:00:33;11.10;;;7.65;;
51792;SDS011;37850;53.178;6.376;2023-07-29T03:02:59;10.95;;;7.40;;
51792;SDS011;37850;53.178;6.376;2023-07-29T03:05:27;10.27;;;7.18;;
51792;SDS011;37850;53.178;6.376;2023-07-29T03:07:53;10.05;;;6.97;;
51792;SDS011;37850;53.178;6.376;2023-07-29T03:10:18;11.45;;;6.93;;
51792;SDS011;37850;53.178;6.376;2023-07-29T03:12:44;11.23;;;7.60;;
51792;SDS011;37850;53.178;6.376;2023-07-29T03:15:10;11.82;;;6.93;;
51792;SDS011;37850;53.178;6.376;2023-07-29T03:17:36;11.25;;;7.15;;
51792;SDS011;37850;53.178;6.376;2023-07-29T03:20:02;12.77;;;7.70;;
51792;SDS011;37850;53.178;6.376;2023-07-29T03:22:28;10.40;;;7.20;;
51792;SDS011;37850;53.178;6.376;2023-07-29T03:24:53;11.48;;;7.55;;
51792;SDS011;37850;53.178;6.376;2023-07-29T03:27:19;12.20;;;6.85;;
51792;SDS011;37850;53.178;6.376;2023-07-29T03:29:45;13.50;;;7.65;;
51792;SDS011;37850;53.178;6.376;2023-07-29T03:32:11;11.68;;;6.57;;
51792;SDS011;37850;53.178;6.376;2023-07-29T03:34:37;10.13;;;7.03;;
51792;SDS011;37850;53.178;6.376;2023-07-29T03:37:03;11.00;;;7.38;;
51792;SDS011;37850;53.178;6.376;2023-07-29T03:39:29;11.13;;;7.70;;
51792;SDS011;37850;53.178;6.376;2023-07-29T03:41:55;11.68;;;7.18;;
51792;SDS011;37850;53.178;6.376;2023-07-29T03:44:21;12.23;;;6.95;;
51792;SDS011;37850;53.178;6.376;2023-07-29T03:46:46;11.65;;;7.43;;
51792;SDS011;37850;53.178;6.376;2023-07-29T03:49:12;11.88;;;6.80;;
51792;SDS011;37850;53.178;6.376;2023-07-29T03:51:38;11.35;;;6.68;;
51792;SDS011;37850;53.178;6.376;2023-07-29T03:54:04;12.13;;;7.43;;
51792;SDS011;37850;53.178;6.376;2023-07-29T03:56:30;14.57;;;6.68;;
51792;SDS011;37850;53.178;6.376;2023-07-29T03:59:02;11.35;;;6.35;;
51792;SDS011;37850;53.178;6.376;2023-07-29T04:01:28;9.55;;;6.60;;
51792;SDS011;37850;53.178;6.376;2023-07-29T04:03:54;10.15;;;5.47;;
51792;SDS011;37850;53.178;6.376;2023-07-29T04:06:20;11.00;;;6.50;;
51792;SDS011;37850;53.178;6.376;2023-07-29T04:08:46;10.73;;;6.30;;
51792;SDS011;37850;53.178;6.376;2023-07-29T04:11:11;12.48;;;6.15;;
51792;SDS011;37850;53.178;6.376;2023-07-29T04:13:37;12.35;;;6.45;;
51792;SDS011;37850;53.178;6.376;2023-07-29T04:16:04;13.85;;;7.20;;
51792;SDS011;37850;53.178;6.376;2023-07-29T04:18:30;9.77;;;5.82;;
51792;SDS011;37850;53.178;6.376;2023-07-29T04:20:56;9.32;;;5.53;;
51792;SDS011;37850;53.178;6.376;2023-07-29T04:23:21;10.50;;;6.47;;
51792;SDS011;37850;53.178;6.376;2023-07-29T04:25:47;13.52;;;6.47;;
51792;SDS011;37850;53.178;6.376;2023-07-29T04:28:13;10.73;;;6.28;;
51792;SDS011;37850;53.178;6.376;2023-07-29T04:30:39;10.80;;;5.65;;
51792;SDS011;37850;53.178;6.376;2023-07-29T04:33:04;15.52;;;6.28;;
51792;SDS011;37850;53.178;6.376;2023-07-29T04:35:30;9.15;;;6.22;;
51792;SDS011;37850;53.178;6.376;2023-07-29T04:37:56;13.10;;;6.55;;
51792;SDS011;37850;53.178;6.376;2023-07-29T04:40:21;10.98;;;6.25;;
51792;SDS011;37850;53.178;6.376;2023-07-29T04:42:48;9.30;;;5.60;;
51792;SDS011;37850;53.178;6.376;2023-07-29T04:45:14;8.48;;;5.72;;
51792;SDS011;37850;53.178;6.376;2023-07-29T04:47:41;11.88;;;5.57;;
51792;SDS011;37850;53.178;6.376;2023-07-29T04:50:08;10.23;;;5.00;;
51792;SDS011;37850;53.178;6.376;2023-07-29T04:52:34;10.30;;;5.32;;
51792;SDS011;37850;53.178;6.376;2023-07-29T04:55:00;9.07;;;4.78;;
51792;SDS011;37850;53.178;6.376;2023-07-29T04:57:26;8.75;;;4.60;;
51792;SDS011;37850;53.178;6.376;2023-07-29T04:59:51;11.13;;;4.90;;
51792;SDS011;37850;53.178;6.376;2023-07-29T05:02:17;7.55;;;3.95;;
51792;SDS011;37850;53.178;6.376;2023-07-29T05:04:43;9.48;;;4.18;;
51792;SDS011;37850;53.178;6.376;2023-07-29T05:07:08;8.02;;;3.75;;
51792;SDS011;37850;53.178;6.376;2023-07-29T05:09:34;9.52;;;4.60;;
51792;SDS011;37850;53.178;6.376;2023-07-29T05:12:00;11.00;;;4.93;;
51792;SDS011;37850;53.178;6.376;2023-07-29T05:14:26;8.77;;;4.30;;
51792;SDS011;37850;53.178;6.376;2023-07-29T05:16:52;7.80;;;3.78;;
51792;SDS011;37850;53.178;6.376;2023-07-29T05:19:17;10.00;;;4.55;;
51792;SDS011;37850;53.178;6.376;2023-07-29T05:21:43;8.55;;;4.53;;
51792;SDS011;37850;53.178;6.376;2023-07-29T05:24:09;8.10;;;4.53;;
51792;SDS011;37850;53.178;6.376;2023-07-29T05:26:35;8.57;;;4.00;;
51792;SDS011;37850;53.178;6.376;2023-07-29T05:29:00;10.93;;;4.45;;
51792;SDS011;37850;53.178;6.376;2023-07-29T05:31:26;9.80;;;4.43;;
51792;SDS011;37850;53.178;6.376;2023-07-29T05:33:52;8.52;;;3.70;;
51792;SDS011;37850;53.178;6.376;2023-07-29T05:36:18;6.90;;;3.47;;
51792;SDS011;37850;53.178;6.376;2023-07-29T05:38:44;9.73;;;4.07;;
51792;SDS011;37850;53.178;6.376;2023-07-29T05:41:10;7.55;;;3.67;;
51792;SDS011;37850;53.178;6.376;2023-07-29T05:43:36;8.55;;;3.78;;
51792;SDS011;37850;53.178;6.376;2023-07-29T05:46:02;7.65;;;3.90;;
51792;SDS011;37850;53.178;6.376;2023-07-29T05:48:28;8.77;;;3.60;;
51792;SDS011;37850;53.178;6.376;2023-07-29T05:50:54;11.55;;;4.05;;
51792;SDS011;37850;53.178;6.376;2023-07-29T05:53:19;8.00;;;4.03;;
51792;SDS011;37850;53.178;6.376;2023-07-29T05:55:45;6.40;;;3.63;;
51792;SDS011;37850;53.178;6.376;2023-07-29T05:58:11;8.27;;;3.63;;
51792;SDS011;37850;53.178;6.376;2023-07-29T06:00:37;9.73;;;4.38;;
51792;SDS011;37850;53.178;6.376;2023-07-29T06:03:02;8.88;;;4.22;;
51792;SDS011;37850;53.178;6.376;2023-07-29T06:05:28;7.43;;;3.38;;
51792;SDS011;37850;53.178;6.376;2023-07-29T06:07:54;6.10;;;3.30;;
51792;SDS011;37850;53.178;6.376;2023-07-29T06:10:19;9.85;;;3.45;;
51792;SDS011;37850;53.178;6.376;2023-07-29T06:12:45;5.75;;;3.25;;
51792;SDS011;37850;53.178;6.376;2023-07-29T06:15:11;7.35;;;3.30;;
51792;SDS011;37850;53.178;6.376;2023-07-29T06:17:38;11.55;;;3.60;;
51792;SDS011;37850;53.178;6.376;2023-07-29T06:20:04;9.77;;;3.35;;
51792;SDS011;37850;53.178;6.376;2023-07-29T06:22:31;8.70;;;3.60;;
51792;SDS011;37850;53.178;6.376;2023-07-29T06:24:56;9.32;;;3.80;;
51792;SDS011;37850;53.178;6.376;2023-07-29T06:27:22;7.68;;;3.70;;
51792;SDS011;37850;53.178;6.376;2023-07-29T06:29:49;8.88;;;3.50;;
51792;SDS011;37850;53.178;6.376;2023-07-29T06:32:15;7.75;;;3.25;;
51792;SDS011;37850;53.178;6.376;2023-07-29T06:34:41;7.82;;;3.40;;
51792;SDS011;37850;53.178;6.376;2023-07-29T06:37:07;8.68;;;3.63;;
51792;SDS011;37850;53.178;6.376;2023-07-29T06:39:32;10.40;;;3.92;;
51792;SDS011;37850;53.178;6.376;2023-07-29T06:41:58;8.95;;;3.60;;
51792;SDS011;37850;53.178;6.376;2023-07-29T06:44:24;9.43;;;3.78;;
51792;SDS011;37850;53.178;6.376;2023-07-29T06:46:49;10.40;;;3.55;;
51792;SDS011;37850;53.178;6.376;2023-07-29T06:49:15;10.38;;;4.03;;
51792;SDS011;37850;53.178;6.376;2023-07-29T06:51:41;13.18;;;3.53;;
51792;SDS011;37850;53.178;6.376;2023-07-29T06:54:07;9.43;;;3.78;;
51792;SDS011;37850;53.178;6.376;2023-07-29T06:56:32;8.85;;;3.60;;
51792;SDS011;37850;53.178;6.376;2023-07-29T06:58:58;8.57;;;3.35;;
51792;SDS011;37850;53.178;6.376;2023-07-29T07:01:24;10.48;;;3.33;;
51792;SDS011;37850;53.178;6.376;2023-07-29T07:03:49;10.25;;;3.30;;
51792;SDS011;37850;53.178;6.376;2023-07-29T07:06:15;10.48;;;3.65;;
51792;SDS011;37850;53.178;6.376;2023-07-29T07:08:41;9.98;;;4.40;;
51792;SDS011;37850;53.178;6.376;2023-07-29T07:11:06;11.18;;;3.50;;
51792;SDS011;37850;53.178;6.376;2023-07-29T07:13:33;11.95;;;3.75;;
51792;SDS011;37850;53.178;6.376;2023-07-29T07:15:58;10.20;;;3.58;;
51792;SDS011;37850;53.178;6.376;2023-07-29T07:18:24;13.98;;;4.82;;
51792;SDS011;37850;53.178;6.376;2023-07-29T07:20:50;17.33;;;4.03;;
51792;SDS011;37850;53.178;6.376;2023-07-29T07:23:17;12.48;;;3.58;;
51792;SDS011;37850;53.178;6.376;2023-07-29T07:25:43;8.30;;;3.70;;
51792;SDS011;37850;53.178;6.376;2023-07-29T07:28:09;13.32;;;3.83;;
51792;SDS011;37850;53.178;6.376;2023-07-29T07:30:35;9.70;;;4.07;;
51792;SDS011;37850;53.178;6.376;2023-07-29T07:33:06;9.13;;;3.80;;
51792;SDS011;37850;53.178;6.376;2023-07-29T07:35:35;9.57;;;4.15;;
51792;SDS011;37850;53.178;6.376;2023-07-29T07:38:00;7.53;;;3.53;;
51792;SDS011;37850;53.178;6.376;2023-07-29T07:40:29;12.38;;;4.00;;
51792;SDS011;37850;53.178;6.376;2023-07-29T07:42:55;11.18;;;3.88;;
51792;SDS011;37850;53.178;6.376;2023-07-29T07:45:24;9.52;;;4.03;;
51792;SDS011;37850;53.178;6.376;2023-07-29T07:47:51;13.25;;;3.30;;
51792;SDS011;37850;53.178;6.376;2023-07-29T07:50:21;9.50;;;3.78;;
51792;SDS011;37850;53.178;6.376;2023-07-29T07:52:46;11.77;;;3.60;;
51792;SDS011;37850;53.178;6.376;2023-07-29T07:55:12;9.27;;;3.40;;
51792;SDS011;37850;53.178;6.376;2023-07-29T07:57:38;21.20;;;4.75;;
51792;SDS011;37850;53.178;6.376;2023-07-29T08:00:04;13.70;;;4.28;;
51792;SDS011;37850;53.178;6.376;2023-07-29T08:02:30;12.32;;;3.30;;
51792;SDS011;37850;53.178;6.376;2023-07-29T08:04:56;14.05;;;3.53;;
51792;SDS011;37850;53.178;6.376;2023-07-29T08:07:22;9.10;;;3.40;;
51792;SDS011;37850;53.178;6.376;2023-07-29T08:09:47;9.60;;;3.25;;
51792;SDS011;37850;53.178;6.376;2023-07-29T08:12:13;11.65;;;3.10;;
51792;SDS011;37850;53.178;6.376;2023-07-29T08:14:38;7.75;;;2.97;;
51792;SDS011;37850;53.178;6.376;2023-07-29T08:17:04;9.88;;;2.97;;
51792;SDS011;37850;53.178;6.376;2023-07-29T08:19:30;6.93;;;2.20;;
51792;SDS011;37850;53.178;6.376;2023-07-29T08:21:56;11.55;;;3.10;;
51792;SDS011;37850;53.178;6.376;2023-07-29T08:24:21;8.93;;;2.60;;
51792;SDS011;37850;53.178;6.376;2023-07-29T08:26:47;6.38;;;2.20;;
51792;SDS011;37850;53.178;6.376;2023-07-29T08:29:13;9.10;;;2.70;;
51792;SDS011;37850;53.178;6.376;2023-07-29T08:31:38;11.05;;;2.70;;
51792;SDS011;37850;53.178;6.376;2023-07-29T08:34:04;8.43;;;2.60;;
51792;SDS011;37850;53.178;6.376;2023-07-29T08:36:30;5.97;;;2.05;;
51792;SDS011;37850;53.178;6.376;2023-07-29T08:38:55;7.68;;;2.75;;
51792;SDS011;37850;53.178;6.376;2023-07-29T08:41:25;10.88;;;3.40;;
51792;SDS011;37850;53.178;6.376;2023-07-29T08:44:16;9.45;;;2.50;;
51792;SDS011;37850;53.178;6.376;2023-07-29T08:46:47;8.95;;;2.22;;
51792;SDS011;37850;53.178;6.376;2023-07-29T08:49:13;6.55;;;2.20;;
51792;SDS011;37850;53.178;6.376;2023-07-29T08:51:41;8.45;;;3.17;;
51792;SDS011;37850;53.178;6.376;2023-07-29T08:54:09;6.90;;;1.80;;
51792;SDS011;37850;53.178;6.376;2023-07-29T08:56:36;5.47;;;1.90;;
51792;SDS011;37850;53.178;6.376;2023-07-29T08:59:02;9.23;;;2.22;;
51792;SDS011;37850;53.178;6.376;2023-07-29T09:01:29;7.38;;;1.95;;
51792;SDS011;37850;53.178;6.376;2023-07-29T09:03:56;7.47;;;2.28;;
51792;SDS011;37850;53.178;6.376;2023-07-29T09:06:21;7.47;;;2.40;;
51792;SDS011;37850;53.178;6.376;2023-07-29T09:08:50;7.13;;;1.92;;
51792;SDS011;37850;53.178;6.376;2023-07-29T09:11:18;8.60;;;2.30;;
51792;SDS011;37850;53.178;6.376;2023-07-29T09:13:45;7.80;;;1.98;;
51792;SDS011;37850;53.178;6.376;2023-07-29T09:16:11;5.88;;;1.83;;
51792;SDS011;37850;53.178;6.376;2023-07-29T09:18:37;6.15;;;2.00;;
51792;SDS011;37850;53.178;6.376;2023-07-29T09:21:03;7.57;;;2.03;;
51792;SDS011;37850;53.178;6.376;2023-07-29T09:23:38;5.95;;;1.73;;
51792;SDS011;37850;53.178;6.376;2023-07-29T09:26:06;4.70;;;1.60;;
51792;SDS011;37850;53.178;6.376;2023-07-29T09:28:33;4.75;;;1.35;;
51792;SDS011;37850;53.178;6.376;2023-07-29T09:31:00;7.65;;;1.67;;
51792;SDS011;37850;53.178;6.376;2023-07-29T09:33:26;7.85;;;1.70;;
51792;SDS011;37850;53.178;6.376;2023-07-29T09:35:52;6.78;;;1.50;;
51792;SDS011;37850;53.178;6.376;2023-07-29T09:38:17;7.70;;;1.90;;
51792;SDS011;37850;53.178;6.376;2023-07-29T09:40:50;5.38;;;1.63;;
51792;SDS011;37850;53.178;6.376;2023-07-29T09:43:30;5.65;;;1.70;;
51792;SDS011;37850;53.178;6.376;2023-07-29T09:46:00;9.20;;;1.73;;
51792;SDS011;37850;53.178;6.376;2023-07-29T09:48:26;8.60;;;1.73;;
51792;SDS011;37850;53.178;6.376;2023-07-29T09:50:54;5.85;;;1.65;;
51792;SDS011;37850;53.178;6.376;2023-07-29T09:53:20;6.88;;;1.83;;
51792;SDS011;37850;53.178;6.376;2023-07-29T09:55:46;5.05;;;1.40;;
51792;SDS011;37850;53.178;6.376;2023-07-29T09:58:19;4.85;;;1.50;;
51792;SDS011;37850;53.178;6.376;2023-07-29T10:00:51;7.25;;;1.63;;
51792;SDS011;37850;53.178;6.376;2023-07-29T10:03:18;7.45;;;1.75;;
51792;SDS011;37850;53.178;6.376;2023-07-29T10:05:46;10.55;;;2.08;;
51792;SDS011;37850;53.178;6.376;2023-07-29T10:08:12;5.22;;;1.60;;
51792;SDS011;37850;53.178;6.376;2023-07-29T10:10:41;6.75;;;1.70;;
51792;SDS011;37850;53.178;6.376;2023-07-29T10:13:07;5.78;;;1.70;;
51792;SDS011;37850;53.178;6.376;2023-07-29T10:15:35;5.38;;;1.77;;
51792;SDS011;37850;53.178;6.376;2023-07-29T10:18:01;5.63;;;1.77;;
51792;SDS011;37850;53.178;6.376;2023-07-29T10:20:30;6.72;;;1.92;;
51792;SDS011;37850;53.178;6.376;2023-07-29T10:22:59;4.32;;;1.38;;
51792;SDS011;37850;53.178;6.376;2023-07-29T10:25:27;5.07;;;1.33;;
51792;SDS011;37850;53.178;6.376;2023-07-29T10:28:06;5.28;;;1.40;;
51792;SDS011;37850;53.178;6.376;2023-07-29T10:30:33;6.22;;;1.70;;
51792;SDS011;37850;53.178;6.376;2023-07-29T10:33:01;4.80;;;1.40;;
51792;SDS011;37850;53.178;6.376;2023-07-29T10:35:28;7.22;;;1.83;;
51792;SDS011;37850;53.178;6.376;2023-07-29T10:37:54;6.25;;;1.80;;
51792;SDS011;37850;53.178;6.376;2023-07-29T10:40:20;7.20;;;1.45;;
51792;SDS011;37850;53.178;6.376;2023-07-29T10:45:37;4.95;;;1.48;;
51792;SDS011;37850;53.178;6.376;2023-07-29T10:53:58;6.93;;;1.85;;
51792;SDS011;37850;53.178;6.376;2023-07-29T10:56:29;8.30;;;1.63;;
51792;SDS011;37850;53.178;6.376;2023-07-29T10:58:58;8.73;;;2.25;;
51792;SDS011;37850;53.178;6.376;2023-07-29T11:01:54;4.53;;;1.92;;
51792;SDS011;37850;53.178;6.376;2023-07-29T11:17:39;6.28;;;1.60;;
51792;SDS011;37850;53.178;6.376;2023-07-29T11:20:07;5.20;;;1.60;;
51792;SDS011;37850;53.178;6.376;2023-07-29T11:22:33;4.55;;;1.65;;
51792;SDS011;37850;53.178;6.376;2023-07-29T11:25:00;5.22;;;1.63;;
51792;SDS011;37850;53.178;6.376;2023-07-29T11:27:26;6.40;;;1.90;;
51792;SDS011;37850;53.178;6.376;2023-07-29T11:29:58;5.53;;;1.65;;
51792;SDS011;37850;53.178;6.376;2023-07-29T11:32:32;4.22;;;1.80;;
51792;SDS011;37850;53.178;6.376;2023-07-29T11:35:03;6.75;;;2.08;;
51792;SDS011;37850;53.178;6.376;2023-07-29T11:37:29;6.70;;;2.10;;
51792;SDS011;37850;53.178;6.376;2023-07-29T11:39:54;6.38;;;2.17;;
51792;SDS011;37850;53.178;6.376;2023-07-29T11:42:20;6.97;;;1.80;;
51792;SDS011;37850;53.178;6.376;2023-07-29T11:44:46;7.07;;;2.10;;
51792;SDS011;37850;53.178;6.376;2023-07-29T11:47:12;8.93;;;2.10;;
51792;SDS011;37850;53.178;6.376;2023-07-29T11:49:38;9.80;;;2.10;;
51792;SDS011;37850;53.178;6.376;2023-07-29T11:52:06;6.85;;;1.92;;
51792;SDS011;37850;53.178;6.376;2023-07-29T11:54:36;7.15;;;2.08;;
51792;SDS011;37850;53.178;6.376;2023-07-29T11:57:11;8.30;;;1.98;;
51792;SDS011;37850;53.178;6.376;2023-07-29T11:59:38;6.65;;;2.28;;
51792;SDS011;37850;53.178;6.376;2023-07-29T12:02:15;7.68;;;2.42;;
51792;SDS011;37850;53.178;6.376;2023-07-29T12:04:46;8.90;;;2.28;;
51792;SDS011;37850;53.178;6.376;2023-07-29T12:07:13;8.02;;;2.50;;
51792;SDS011;37850;53.178;6.376;2023-07-29T12:09:40;9.32;;;2.15;;
51792;SDS011;37850;53.178;6.376;2023-07-29T12:12:07;7.57;;;2.17;;
51792;SDS011;37850;53.178;6.376;2023-07-29T12:14:33;6.50;;;2.00;;
51792;SDS011;37850;53.178;6.376;2023-07-29T12:17:00;4.85;;;1.60;;
51792;SDS011;37850;53.178;6.376;2023-07-29T12:19:34;7.93;;;1.88;;
51792;SDS011;37850;53.178;6.376;2023-07-29T12:22:01;6.28;;;1.90;;
51792;SDS011;37850;53.178;6.376;2023-07-29T12:24:29;9.52;;;2.08;;
51792;SDS011;37850;53.178;6.376;2023-07-29T12:26:59;7.88;;;2.30;;
51792;SDS011;37850;53.178;6.376;2023-07-29T12:29:25;6.85;;;2.00;;
51792;SDS011;37850;53.178;6.376;2023-07-29T12:32:02;6.15;;;1.90;;
51792;SDS011;37850;53.178;6.376;2023-07-29T12:34:29;6.03;;;1.80;;
51792;SDS011;37850;53.178;6.376;2023-07-29T12:36:56;6.97;;;2.30;;
51792;SDS011;37850;53.178;6.376;2023-07-29T12:39:27;6.45;;;2.17;;
51792;SDS011;37850;53.178;6.376;2023-07-29T12:41:55;6.97;;;1.77;;
51792;SDS011;37850;53.178;6.376;2023-07-29T12:44:23;8.10;;;2.00;;
51792;SDS011;37850;53.178;6.376;2023-07-29T12:46:50;7.20;;;1.88;;
51792;SDS011;37850;53.178;6.376;2023-07-29T12:49:19;5.95;;;1.58;;
51792;SDS011;37850;53.178;6.376;2023-07-29T12:51:45;5.90;;;1.70;;
51792;SDS011;37850;53.178;6.376;2023-07-29T12:54:11;7.57;;;2.10;;
51792;SDS011;37850;53.178;6.376;2023-07-29T12:56:37;6.30;;;1.70;;
51792;SDS011;37850;53.178;6.376;2023-07-29T12:59:02;5.45;;;1.77;;
51792;SDS011;37850;53.178;6.376;2023-07-29T13:01:29;7.57;;;2.08;;
51792;SDS011;37850;53.178;6.376;2023-07-29T13:03:55;6.22;;;1.65;;
51792;SDS011;37850;53.178;6.376;2023-07-29T13:06:21;7.82;;;2.10;;
51792;SDS011;37850;53.178;6.376;2023-07-29T13:08:48;6.72;;;1.73;;
51792;SDS011;37850;53.178;6.376;2023-07-29T13:11:14;7.25;;;1.58;;
51792;SDS011;37850;53.178;6.376;2023-07-29T13:13:40;5.03;;;1.60;;
51792;SDS011;37850;53.178;6.376;2023-07-29T13:16:06;6.30;;;1.65;;
51792;SDS011;37850;53.178;6.376;2023-07-29T13:18:32;5.55;;;1.85;;
51792;SDS011;37850;53.178;6.376;2023-07-29T13:20:58;4.85;;;1.80;;
51792;SDS011;37850;53.178;6.376;2023-07-29T13:23:25;5.93;;;1.73;;
51792;SDS011;37850;53.178;6.376;2023-07-29T13:25:51;6.32;;;1.80;;
51792;SDS011;37850;53.178;6.376;2023-07-29T13:28:17;5.72;;;1.60;;
51792;SDS011;37850;53.178;6.376;2023-07-29T13:30:44;6.50;;;2.00;;
51792;SDS011;37850;53.178;6.376;2023-07-29T13:33:10;5.40;;;2.15;;
51792;SDS011;37850;53.178;6.376;2023-07-29T13:35:36;6.80;;;2.10;;
51792;SDS011;37850;53.178;6.376;2023-07-29T13:38:02;6.18;;;1.92;;
51792;SDS011;37850;53.178;6.376;2023-07-29T13:40:28;10.95;;;2.20;;
51792;SDS011;37850;53.178;6.376;2023-07-29T13:42:54;5.82;;;1.95;;
51792;SDS011;37850;53.178;6.376;2023-07-29T13:45:20;5.40;;;1.77;;
51792;SDS011;37850;53.178;6.376;2023-07-29T13:47:47;7.63;;;1.90;;
51792;SDS011;37850;53.178;6.376;2023-07-29T13:50:13;5.88;;;1.92;;
51792;SDS011;37850;53.178;6.376;2023-07-29T13:52:40;6.45;;;1.88;;
51792;SDS011;37850;53.178;6.376;2023-07-29T13:55:05;6.35;;;1.90;;
51792;SDS011;37850;53.178;6.376;2023-07-29T13:57:32;6.40;;;1.90;;
51792;SDS011;37850;53.178;6.376;2023-07-29T13:59:58;11.55;;;2.13;;
51792;SDS011;37850;53.178;6.376;2023-07-29T14:02:24;5.32;;;1.70;;
51792;SDS011;37850;53.178;6.376;2023-07-29T14:04:53;7.20;;;2.10;;
51792;SDS011;37850;53.178;6.376;2023-07-29T14:07:19;10.10;;;2.20;;
51792;SDS011;37850;53.178;6.376;2023-07-29T14:09:45;6.20;;;1.77;;
51792;SDS011;37850;53.178;6.376;2023-07-29T14:12:12;7.28;;;2.28;;
51792;SDS011;37850;53.178;6.376;2023-07-29T14:14:39;8.02;;;2.10;;
51792;SDS011;37850;53.178;6.376;2023-07-29T14:17:06;6.63;;;2.30;;
51792;SDS011;37850;53.178;6.376;2023-07-29T14:19:33;7.18;;;2.40;;
51792;SDS011;37850;53.178;6.376;2023-07-29T14:21:59;6.30;;;2.05;;
51792;SDS011;37850;53.178;6.376;2023-07-29T14:24:25;7.90;;;2.15;;
51792;SDS011;37850;53.178;6.376;2023-07-29T14:26:51;7.55;;;2.25;;
51792;SDS011;37850;53.178;6.376;2023-07-29T14:29:16;6.47;;;1.95;;
51792;SDS011;37850;53.178;6.376;2023-07-29T14:31:42;8.40;;;2.00;;
51792;SDS011;37850;53.178;6.376;2023-07-29T14:34:08;6.53;;;1.90;;
51792;SDS011;37850;53.178;6.376;2023-07-29T14:36:34;12.25;;;1.90;;
51792;SDS011;37850;53.178;6.376;2023-07-29T14:39:00;7.55;;;2.15;;
51792;SDS011;37850;53.178;6.376;2023-07-29T14:41:26;6.68;;;1.92;;
51792;SDS011;37850;53.178;6.376;2023-07-29T14:43:51;8.40;;;2.47;;
51792;SDS011;37850;53.178;6.376;2023-07-29T14:46:17;11.35;;;2.20;;
51792;SDS011;37850;53.178;6.376;2023-07-29T14:48:43;9.05;;;2.20;;
51792;SDS011;37850;53.178;6.376;2023-07-29T14:51:09;7.55;;;2.03;;
51792;SDS011;37850;53.178;6.376;2023-07-29T14:53:34;8.25;;;1.88;;
51792;SDS011;37850;53.178;6.376;2023-07-29T14:56:00;6.15;;;1.67;;
51792;SDS011;37850;53.178;6.376;2023-07-29T14:58:26;6.88;;;2.00;;
51792;SDS011;37850;53.178;6.376;2023-07-29T15:00:52;6.07;;;1.67;;
51792;SDS011;37850;53.178;6.376;2023-07-29T15:03:17;4.70;;;1.58;;
51792;SDS011;37850;53.178;6.376;2023-07-29T15:05:43;5.47;;;1.75;;
51792;SDS011;37850;53.178;6.376;2023-07-29T15:08:09;5.03;;;1.33;;
51792;SDS011;37850;53.178;6.376;2023-07-29T15:10:35;4.03;;;1.40;;
51792;SDS011;37850;53.178;6.376;2023-07-29T15:13:00;6.25;;;1.60;;
51792;SDS011;37850;53.178;6.376;2023-07-29T15:15:27;5.15;;;1.30;;